Great Falls, MT

2:06 PM MDT on June 03, 2015 (GMT -0600)
Great Falls South SIde | | Change Station
CLOSE
Current Station
Personal Weather Station
Location: Great Falls, MT
Elevation: 3399 ft
Nearby Weather Stations

Elev 3399 ft 47.50 °N, 111.27 °W | Updated 8 seconds ago

Clear
Clear
70.0 °F
Feels Like 70.0 °F
N
2.0
Wind Variable Wind from West
Gusts 5.0 mph

Today
High -- | Low -- °F
--% Chance of Precip.
Yesterday
High -- | Low -- °F
Precip. -- in
5:30 AM 9:16 PM
Full, 98% visible
Pressure 29.88 in
Visibility 10.0 miles
Clouds Few 6000 ft
Dew Point 45 °F
Humidity 41%
Rainfall 0.00 in
Snow Depth Not available.
UV 10 out of 12
Pollen 4.90 out of 12
Air Quality Not available.
Flu Activity Sporadic
METAR KGTF 031953Z VRB03KT 10SM FEW060 21/06 A2992 RMK AO2 SLP119 T02060056

More Conditions Fewer Conditions

Pressure 29.88 in
Visibility 10.0 miles
Clouds Few 6000 ft
Dew Point 45 °F
Humidity 41%
Rainfall 0.00 in
Snow Depth Not available.
UV 10 out of 12
Pollen 4.90 out of 12
Air Quality Not available.
Flu Activity Sporadic
METAR KGTF 031953Z VRB03KT 10SM FEW060 21/06 A2992 RMK AO2 SLP119 T02060056

More Conditions Fewer Conditions

10-Day Weather Forecast

×

Almanac

Astronomy

Jun. 03, 2015 Rise Set
Actual Time
Civil Twilight
Nautical Twilight
Astronomical Twilight
Moon
Length of Visible Light
Length of Day
Tomorrow will be .
, % of the Moon is Illuminated

Today's Extremes

State Highs State Lows

Community

WunderPhotos

Upload Photos

1,826,277 photos uploaded!

WunderBlogs® & News

Nearby

Air Quality

  Air Quality AQ Index Pollutant
Not available.

Snow Depth

Station Depth Elevation

Earthquake Activity

City Distance Mag. Time & Date
Minimum magnitude displayed is 2.5.

Coastal Water Temperatures

Place Temperature

Stations

Nearby Weather Stations

Station Location Temp. Windchill Dew Point Humidity Wind Precip. Elev Updated Type